Time,TemperatureF,DewpointF,PressureIn,WindDirection,WindDirectionDegrees,WindSpeedMPH,WindSpeedGustMPH,Humidity,HourlyPrecipIn,Conditions,Clouds,dailyrainin,SoftwareType,DateUTC
2013-01-22 00:04:00,-8.9,-13.4,30.43,NW,313,3.0,3.0,80,0.00,,,0.00,Wunderground v.1.15,2013-01-22 06:04:00,
2013-01-22 00:10:00,-8.9,-13.7,30.43,NW,313,1.0,2.0,79,0.00,,,0.00,Wunderground v.1.15,2013-01-22 06:10:00,
2013-01-22 00:15:00,-9.0,-13.5,30.43,NW,310,1.0,2.0,80,0.00,,,0.00,Wunderground v.1.15,2013-01-22 06:15:00,
2013-01-22 00:20:00,-9.0,-13.5,30.43,NW,310,4.0,4.0,80,0.00,,,0.00,Wunderground v.1.15,2013-01-22 06:20:00,
2013-01-22 00:26:00,-9.0,-13.5,30.44,NW,311,3.0,4.0,80,0.00,,,0.00,Wunderground v.1.15,2013-01-22 06:26:00,
2013-01-22 00:32:00,-9.0,-13.8,30.44,NW,311,0.0,2.0,79,0.00,,,0.00,Wunderground v.1.15,2013-01-22 06:32:00,
2013-01-22 00:37:00,-9.1,-13.8,30.44,NW,311,4.0,4.0,79,0.00,,,0.00,Wunderground v.1.15,2013-01-22 06:37:00,
2013-01-22 00:43:00,-9.1,-13.8,30.44,NW,311,1.0,2.0,79,0.00,,,0.00,Wunderground v.1.15,2013-01-22 06:43:00,
2013-01-22 00:48:00,-9.2,-13.7,30.44,NW,313,2.0,2.0,80,0.00,,,0.00,Wunderground v.1.15,2013-01-22 06:48:00,
2013-01-22 00:54:00,-9.3,-13.8,30.44,NW,308,2.0,3.0,80,0.00,,,0.00,Wunderground v.1.15,2013-01-22 06:54:00,
2013-01-22 01:00:00,-9.3,-13.8,30.44,NW,309,3.0,3.0,80,0.00,,,0.00,Wunderground v.1.15,2013-01-22 07:00:00,
2013-01-22 01:05:00,-9.3,-13.8,30.45,NW,323,0.0,4.0,80,0.00,,,0.00,Wunderground v.1.15,2013-01-22 07:05:00,
2013-01-22 01:11:00,-9.4,-14.1,30.45,NW,319,3.0,3.0,79,0.00,,,0.00,Wunderground v.1.15,2013-01-22 07:11:00,
2013-01-22 01:16:00,-9.4,-14.1,30.45,NW,314,3.0,6.0,79,0.00,,,0.00,Wunderground v.1.15,2013-01-22 07:16:00,
2013-01-22 01:21:00,-9.4,-14.1,30.45,NW,315,2.0,4.0,79,0.00,,,0.00,Wunderground v.1.15,2013-01-22 07:21:00,
2013-01-22 01:27:00,-9.5,-14.2,30.45,NW,315,3.0,4.0,79,0.00,,,0.00,Wunderground v.1.15,2013-01-22 07:27:00,
2013-01-22 01:32:00,-9.6,-14.3,30.46,NW,315,2.0,2.0,79,0.00,,,0.00,Wunderground v.1.15,2013-01-22 07:32:00,
2013-01-22 01:38:00,-9.7,-14.2,30.46,NW,314,1.0,2.0,80,0.00,,,0.00,Wunderground v.1.15,2013-01-22 07:38:00,
2013-01-22 01:43:00,-9.8,-14.3,30.46,NW,311,0.0,2.0,80,0.00,,,0.00,Wunderground v.1.15,2013-01-22 07:43:00,
2013-01-22 01:48:00,-9.9,-14.6,30.46,NW,311,0.0,2.0,79,0.00,,,0.00,Wunderground v.1.15,2013-01-22 07:48:00,
2013-01-22 01:54:00,-10.0,-14.7,30.46,NW,310,0.0,1.0,79,0.00,,,0.00,Wunderground v.1.15,2013-01-22 07:54:00,
2013-01-22 01:59:00,-10.2,-14.9,30.47,NW,310,2.0,2.0,79,0.00,,,0.00,Wunderground v.1.15,2013-01-22 07:59:00,
2013-01-22 02:04:00,-10.3,-14.8,30.47,NW,310,0.0,1.0,80,0.00,,,0.00,Wunderground v.1.15,2013-01-22 08:04:00,
2013-01-22 02:09:00,-10.5,-15.0,30.47,NW,310,2.0,2.0,80,0.00,,,0.00,Wunderground v.1.15,2013-01-22 08:09:00,
2013-01-22 02:15:00,-10.6,-15.1,30.47,NW,310,0.0,2.0,80,0.00,,,0.00,Wunderground v.1.15,2013-01-22 08:15:00,
2013-01-22 02:20:00,-10.7,-15.2,30.47,NW,310,0.0,1.0,80,0.00,,,0.00,Wunderground v.1.15,2013-01-22 08:20:00,
2013-01-22 02:25:00,-10.8,-15.0,30.47,NW,310,0.0,3.0,81,0.00,,,0.00,Wunderground v.1.15,2013-01-22 08:25:00,
2013-01-22 02:30:00,-10.9,-15.1,30.48,NW,309,0.0,1.0,81,0.00,,,0.00,Wunderground v.1.15,2013-01-22 08:30:00,
2013-01-22 02:36:00,-11.0,-15.2,30.48,NW,309,0.0,2.0,81,0.00,,,0.00,Wunderground v.1.15,2013-01-22 08:36:00,
2013-01-22 02:41:00,-11.2,-15.4,30.48,NW,309,0.0,0.0,81,0.00,,,0.00,Wunderground v.1.15,2013-01-22 08:41:00,
2013-01-22 02:46:00,-11.3,-15.5,30.48,NW,309,0.0,2.0,81,0.00,,,0.00,Wunderground v.1.15,2013-01-22 08:46:00,
2013-01-22 02:51:00,-11.3,-15.5,30.48,NW,309,0.0,1.0,81,0.00,,,0.00,Wunderground v.1.15,2013-01-22 08:51:00,
2013-01-22 02:56:00,-11.4,-15.6,30.48,NW,309,1.0,1.0,81,0.00,,,0.00,Wunderground v.1.15,2013-01-22 08:56:00,
2013-01-22 03:01:00,-11.5,-15.7,30.48,NW,309,2.0,2.0,81,0.00,,,0.00,Wunderground v.1.15,2013-01-22 09:01:00,
2013-01-22 03:06:00,-11.5,-15.7,30.48,WNW,298,0.0,5.0,81,0.00,,,0.00,Wunderground v.1.15,2013-01-22 09:06:00,
2013-01-22 03:11:00,-11.4,-15.6,30.48,WNW,298,1.0,2.0,81,0.00,,,0.00,Wunderground v.1.15,2013-01-22 09:11:00,
2013-01-22 03:16:00,-11.5,-15.7,30.48,WNW,298,1.0,4.0,81,0.00,,,0.00,Wunderground v.1.15,2013-01-22 09:16:00,
2013-01-22 03:22:00,-11.5,-15.7,30.48,WNW,298,0.0,2.0,81,0.00,,,0.00,Wunderground v.1.15,2013-01-22 09:22:00,
2013-01-22 03:27:00,-11.6,-15.8,30.48,WNW,298,0.0,2.0,81,0.00,,,0.00,Wunderground v.1.15,2013-01-22 09:27:00,
2013-01-22 03:32:00,-11.6,-15.8,30.48,WNW,296,2.0,3.0,81,0.00,,,0.00,Wunderground v.1.15,2013-01-22 09:32:00,
2013-01-22 03:37:00,-11.6,-15.8,30.48,WNW,296,0.0,3.0,81,0.00,,,0.00,Wunderground v.1.15,2013-01-22 09:37:00,
2013-01-22 03:42:00,-11.7,-15.9,30.48,WNW,296,2.0,2.0,81,0.00,,,0.00,Wunderground v.1.15,2013-01-22 09:42:00,
2013-01-22 03:47:00,-11.8,-16.0,30.48,WNW,296,2.0,3.0,81,0.00,,,0.00,Wunderground v.1.15,2013-01-22 09:47:00,
2013-01-22 03:52:00,-11.8,-16.0,30.48,WNW,296,0.0,1.0,81,0.00,,,0.00,Wunderground v.1.15,2013-01-22 09:52:00,
2013-01-22 03:58:00,-11.9,-16.1,30.48,WNW,296,0.0,3.0,81,0.00,,,0.00,Wunderground v.1.15,2013-01-22 09:58:00,
2013-01-22 04:03:00,-12.0,-16.2,30.48,WNW,296,0.0,2.0,81,0.00,,,0.00,Wunderground v.1.15,2013-01-22 10:03:00,
2013-01-22 04:08:00,-12.1,-16.3,30.48,WNW,296,0.0,3.0,81,0.00,,,0.00,Wunderground v.1.15,2013-01-22 10:08:00,
2013-01-22 04:13:00,-12.1,-16.3,30.48,WNW,296,0.0,0.0,81,0.00,,,0.00,Wunderground v.1.15,2013-01-22 10:13:00,
2013-01-22 04:18:00,-12.3,-16.5,30.48,WNW,296,2.0,2.0,81,0.00,,,0.00,Wunderground v.1.15,2013-01-22 10:18:00,
2013-01-22 04:23:00,-12.4,-16.6,30.48,WNW,296,1.0,1.0,81,0.00,,,0.00,Wunderground v.1.15,2013-01-22 10:23:00,
2013-01-22 04:28:00,-12.4,-16.6,30.48,WNW,296,1.0,4.0,81,0.00,,,0.00,Wunderground v.1.15,2013-01-22 10:28:00,
2013-01-22 04:33:00,-12.5,-16.7,30.48,WNW,296,0.0,4.0,81,0.00,,,0.00,Wunderground v.1.15,2013-01-22 10:33:00,
2013-01-22 04:38:00,-12.6,-16.8,30.48,WNW,296,0.0,4.0,81,0.00,,,0.00,Wunderground v.1.15,2013-01-22 10:38:00,
2013-01-22 04:43:00,-12.7,-16.9,30.48,WNW,296,0.0,1.0,81,0.00,,,0.00,Wunderground v.1.15,2013-01-22 10:43:00,
2013-01-22 04:48:00,-12.9,-17.1,30.48,WNW,296,2.0,3.0,81,0.00,,,0.00,Wunderground v.1.15,2013-01-22 10:48:00,
2013-01-22 04:53:00,-13.0,-17.2,30.49,WNW,296,0.0,2.0,81,0.00,,,0.00,Wunderground v.1.15,2013-01-22 10:53:00,
2013-01-22 04:58:00,-13.1,-17.3,30.49,WNW,296,0.0,3.0,81,0.00,,,0.00,Wunderground v.1.15,2013-01-22 10:58:00,
2013-01-22 05:04:00,-13.1,-17.3,30.49,WNW,296,0.0,4.0,81,0.00,,,0.00,Wunderground v.1.15,2013-01-22 11:04:00,
2013-01-22 05:09:00,-13.1,-17.3,30.49,WNW,296,0.0,4.0,81,0.00,,,0.00,Wunderground v.1.15,2013-01-22 11:09:00,
2013-01-22 05:14:00,-13.3,-17.5,30.49,WNW,296,0.0,0.0,81,0.00,,,0.00,Wunderground v.1.15,2013-01-22 11:14:00,
2013-01-22 05:19:00,-13.4,-17.6,30.49,WNW,296,0.0,1.0,81,0.00,,,0.00,Wunderground v.1.15,2013-01-22 11:19:00,
2013-01-22 05:24:00,-13.5,-17.7,30.49,WNW,296,0.0,0.0,81,0.00,,,0.00,Wunderground v.1.15,2013-01-22 11:24:00,
2013-01-22 05:29:00,-13.4,-17.6,30.49,WNW,296,0.0,0.0,81,0.00,,,0.00,Wunderground v.1.15,2013-01-22 11:29:00,
2013-01-22 05:34:00,-13.4,-17.6,30.49,WNW,296,0.0,0.0,81,0.00,,,0.00,Wunderground v.1.15,2013-01-22 11:34:00,
2013-01-22 05:39:00,-13.6,-17.8,30.49,WNW,296,0.0,0.0,81,0.00,,,0.00,Wunderground v.1.15,2013-01-22 11:39:00,
2013-01-22 05:44:00,-13.8,-18.0,30.49,WNW,296,0.0,0.0,81,0.00,,,0.00,Wunderground v.1.15,2013-01-22 11:44:00,
2013-01-22 05:49:00,-14.0,-18.1,30.49,WNW,296,0.0,0.0,81,0.00,,,0.00,Wunderground v.1.15,2013-01-22 11:49:00,
2013-01-22 05:55:00,-14.2,-18.3,30.49,WNW,296,0.0,0.0,81,0.00,,,0.00,Wunderground v.1.15,2013-01-22 11:55:00,
2013-01-22 06:00:00,-14.5,-18.9,30.49,WNW,296,0.0,0.0,80,0.00,,,0.00,Wunderground v.1.15,2013-01-22 12:00:00,
2013-01-22 06:05:00,-14.8,-18.9,30.49,WNW,296,0.0,0.0,81,0.00,,,0.00,Wunderground v.1.15,2013-01-22 12:05:00,
2013-01-22 06:10:00,-14.9,-19.0,30.50,WNW,296,0.0,0.0,81,0.00,,,0.00,Wunderground v.1.15,2013-01-22 12:10:00,
2013-01-22 06:15:00,-15.1,-19.2,30.50,WNW,296,0.0,0.0,81,0.00,,,0.00,Wunderground v.1.15,2013-01-22 12:15:00,
2013-01-22 06:20:00,-15.4,-19.5,30.50,WNW,296,0.0,0.0,81,0.00,,,0.00,Wunderground v.1.15,2013-01-22 12:20:00,
2013-01-22 06:26:00,-15.4,-19.5,30.51,WNW,296,0.0,0.0,81,0.00,,,0.00,Wunderground v.1.15,2013-01-22 12:26:00,
2013-01-22 06:31:00,-15.6,-19.7,30.51,WNW,296,0.0,0.0,81,0.00,,,0.00,Wunderground v.1.15,2013-01-22 12:31:00,
2013-01-22 06:36:00,-15.8,-19.9,30.51,WNW,296,0.0,0.0,81,0.00,,,0.00,Wunderground v.1.15,2013-01-22 12:36:00,
2013-01-22 06:41:00,-16.0,-20.1,30.51,WNW,296,0.0,0.0,81,0.00,,,0.00,Wunderground v.1.15,2013-01-22 12:41:00,
2013-01-22 06:46:00,-16.1,-20.2,30.51,WNW,296,0.0,0.0,81,0.00,,,0.00,Wunderground v.1.15,2013-01-22 12:46:00,
2013-01-22 06:52:00,-16.3,-20.4,30.51,WNW,296,0.0,0.0,81,0.00,,,0.00,Wunderground v.1.15,2013-01-22 12:52:00,
2013-01-22 06:57:00,-16.5,-20.6,30.51,WNW,296,0.0,0.0,81,0.00,,,0.00,Wunderground v.1.15,2013-01-22 12:57:00,
2013-01-22 07:02:00,-16.6,-20.7,30.50,WNW,296,0.0,0.0,81,0.00,,,0.00,Wunderground v.1.15,2013-01-22 13:02:00,
2013-01-22 07:07:00,-16.8,-20.9,30.50,WNW,296,0.0,0.0,81,0.00,,,0.00,Wunderground v.1.15,2013-01-22 13:07:00,
2013-01-22 07:12:00,-16.9,-21.0,30.50,WNW,296,0.0,0.0,81,0.00,,,0.00,Wunderground v.1.15,2013-01-22 13:12:00,
2013-01-22 07:18:00,-17.0,-21.1,30.50,WNW,296,0.0,0.0,81,0.00,,,0.00,Wunderground v.1.15,2013-01-22 13:18:00,
2013-01-22 07:23:00,-17.0,-21.1,30.49,WNW,296,0.0,0.0,81,0.00,,,0.00,Wunderground v.1.15,2013-01-22 13:23:00,
2013-01-22 07:29:00,-17.0,-20.8,30.49,WNW,296,0.0,0.0,82,0.00,,,0.00,Wunderground v.1.15,2013-01-22 13:29:00,
2013-01-22 07:34:00,-16.9,-20.8,30.48,WNW,296,0.0,0.0,82,0.00,,,0.00,Wunderground v.1.15,2013-01-22 13:34:00,
2013-01-22 07:39:00,-16.9,-20.8,30.48,WNW,296,0.0,0.0,82,0.00,,,0.00,Wunderground v.1.15,2013-01-22 13:39:00,
2013-01-22 07:44:00,-16.9,-20.8,30.48,WNW,296,0.0,0.0,82,0.00,,,0.00,Wunderground v.1.15,2013-01-22 13:44:00,
2013-01-22 07:49:00,-16.7,-20.6,30.49,WNW,296,0.0,0.0,82,0.00,,,0.00,Wunderground v.1.15,2013-01-22 13:49:00,
2013-01-22 07:54:00,-16.6,-20.5,30.49,WNW,296,0.0,0.0,82,0.00,,,0.00,Wunderground v.1.15,2013-01-22 13:54:00,
2013-01-22 07:59:00,-16.6,-20.5,30.49,WNW,296,0.0,0.0,82,0.00,,,0.00,Wunderground v.1.15,2013-01-22 13:59:00,
2013-01-22 08:04:00,-16.7,-20.6,30.49,WNW,296,0.0,0.0,82,0.00,,,0.00,Wunderground v.1.15,2013-01-22 14:04:00,
2013-01-22 08:09:00,-16.7,-20.6,30.50,WNW,296,0.0,0.0,82,0.00,,,0.00,Wunderground v.1.15,2013-01-22 14:09:00,
2013-01-22 08:14:00,-16.6,-20.5,30.50,WNW,296,0.0,0.0,82,0.00,,,0.00,Wunderground v.1.15,2013-01-22 14:14:00,
2013-01-22 08:20:00,-16.5,-20.4,30.50,WNW,296,0.0,0.0,82,0.00,,,0.00,Wunderground v.1.15,2013-01-22 14:20:00,
2013-01-22 08:25:00,-16.4,-20.3,30.50,WNW,296,0.0,0.0,82,0.00,,,0.00,Wunderground v.1.15,2013-01-22 14:25:00,
2013-01-22 08:30:00,-16.1,-19.7,30.50,WNW,296,0.0,0.0,83,0.00,,,0.00,Wunderground v.1.15,2013-01-22 14:30:00,
2013-01-22 08:35:00,-15.7,-19.3,30.50,WNW,296,0.0,0.0,83,0.00,,,0.00,Wunderground v.1.15,2013-01-22 14:35:00,
2013-01-22 08:40:00,-15.1,-18.5,30.50,WNW,296,0.0,0.0,84,0.00,,,0.00,Wunderground v.1.15,2013-01-22 14:40:00,
2013-01-22 08:45:00,-14.2,-17.4,30.50,WNW,296,0.0,1.0,85,0.00,,,0.00,Wunderground v.1.15,2013-01-22 14:45:00,
2013-01-22 08:51:00,-13.1,-16.3,30.51,WNW,296,0.0,0.0,85,0.00,,,0.00,Wunderground v.1.15,2013-01-22 14:51:00,
2013-01-22 08:56:00,-12.5,-15.7,30.51,WNW,296,0.0,1.0,85,0.00,,,0.00,Wunderground v.1.15,2013-01-22 14:56:00,
2013-01-22 09:01:00,-11.6,-14.8,30.51,WNW,296,1.0,3.0,85,0.00,,,0.00,Wunderground v.1.15,2013-01-22 15:01:00,
2013-01-22 09:06:00,-10.8,-14.3,30.52,WNW,296,0.0,3.0,84,0.00,,,0.00,Wunderground v.1.15,2013-01-22 15:06:00,
2013-01-22 09:11:00,-10.1,-13.8,30.52,WNW,296,4.0,4.0,83,0.00,,,0.00,Wunderground v.1.15,2013-01-22 15:11:00,
2013-01-22 09:17:00,-9.6,-13.6,30.52,WNW,290,4.0,4.0,82,0.00,,,0.00,Wunderground v.1.15,2013-01-22 15:17:00,
2013-01-22 09:22:00,-9.3,-13.8,30.53,West,279,1.0,5.0,80,0.00,,,0.00,Wunderground v.1.15,2013-01-22 15:22:00,
2013-01-22 09:27:00,-8.9,-13.7,30.53,West,279,1.0,5.0,79,0.00,,,0.00,Wunderground v.1.15,2013-01-22 15:27:00,
2013-01-22 09:32:00,-8.4,-13.2,30.52,West,279,1.0,2.0,79,0.00,,,0.00,Wunderground v.1.15,2013-01-22 15:32:00,
2013-01-22 09:37:00,-7.9,-12.7,30.52,West,279,0.0,2.0,79,0.00,,,0.00,Wunderground v.1.15,2013-01-22 15:37:00,
2013-01-22 09:42:00,-7.6,-12.9,30.51,West,279,0.0,1.0,77,0.00,,,0.00,Wunderground v.1.15,2013-01-22 15:42:00,
2013-01-22 09:47:00,-7.1,-12.4,30.52,West,279,2.0,2.0,77,0.00,,,0.00,Wunderground v.1.15,2013-01-22 15:47:00,
2013-01-22 09:52:00,-7.1,-12.9,30.52,West,279,2.0,2.0,75,0.00,,,0.00,Wunderground v.1.15,2013-01-22 15:52:00,
2013-01-22 09:57:00,-7.0,-13.1,30.53,West,279,1.0,3.0,74,0.00,,,0.00,Wunderground v.1.15,2013-01-22 15:57:00,
2013-01-22 10:02:00,-6.7,-13.1,30.53,West,279,3.0,3.0,73,0.00,,,0.00,Wunderground v.1.15,2013-01-22 16:02:00,
2013-01-22 10:08:00,-6.3,-12.7,30.53,West,279,2.0,3.0,73,0.00,,,0.00,Wunderground v.1.15,2013-01-22 16:08:00,
2013-01-22 10:13:00,-6.3,-13.0,30.53,West,273,3.0,4.0,72,0.00,,,0.00,Wunderground v.1.15,2013-01-22 16:13:00,
2013-01-22 10:18:00,-6.4,-13.1,30.53,West,267,2.0,5.0,72,0.00,,,0.00,Wunderground v.1.15,2013-01-22 16:18:00,
2013-01-22 10:23:00,-6.1,-12.8,30.53,West,267,0.0,3.0,72,0.00,,,0.00,Wunderground v.1.15,2013-01-22 16:23:00,
2013-01-22 10:28:00,-5.9,-12.6,30.53,West,262,2.0,5.0,72,0.00,,,0.00,Wunderground v.1.15,2013-01-22 16:28:00,
2013-01-22 10:33:00,-5.5,-11.9,30.53,West,264,1.0,4.0,73,0.00,,,0.00,Wunderground v.1.15,2013-01-22 16:33:00,
2013-01-22 10:39:00,-5.4,-11.8,30.54,WSW,238,4.0,6.0,73,0.00,,,0.00,Wunderground v.1.15,2013-01-22 16:39:00,
2013-01-22 10:44:00,-5.2,-11.4,30.53,WSW,238,1.0,3.0,74,0.00,,,0.00,Wunderground v.1.15,2013-01-22 16:44:00,
2013-01-22 10:49:00,-5.0,-11.4,30.53,WNW,285,1.0,5.0,73,0.00,,,0.00,Wunderground v.1.15,2013-01-22 16:49:00,
2013-01-22 10:54:00,-4.7,-11.2,30.53,West,260,4.0,5.0,73,0.00,,,0.00,Wunderground v.1.15,2013-01-22 16:54:00,
2013-01-22 10:59:00,-5.0,-11.7,30.52,SW,217,4.0,7.0,72,0.00,,,0.00,Wunderground v.1.15,2013-01-22 16:59:00,
2013-01-22 11:04:00,-5.1,-12.4,30.52,West,259,3.0,7.0,70,0.00,,,0.00,Wunderground v.1.15,2013-01-22 17:04:00,
2013-01-22 11:09:00,-5.1,-12.4,30.52,WSW,247,8.0,8.0,70,0.00,,,0.00,Wunderground v.1.15,2013-01-22 17:09:00,
2013-01-22 11:14:00,-4.9,-12.2,30.53,West,261,2.0,7.0,70,0.00,,,0.00,Wunderground v.1.15,2013-01-22 17:14:00,
2013-01-22 11:20:00,-4.7,-12.3,30.52,West,268,2.0,9.0,69,0.00,,,0.00,Wunderground v.1.15,2013-01-22 17:20:00,
2013-01-22 11:25:00,-4.5,-12.1,30.52,West,259,0.0,5.0,69,0.00,,,0.00,Wunderground v.1.15,2013-01-22 17:25:00,
2013-01-22 11:30:00,-4.6,-12.2,30.52,West,259,3.0,3.0,69,0.00,,,0.00,Wunderground v.1.15,2013-01-22 17:30:00,
2013-01-22 11:35:00,-4.4,-12.0,30.51,WSW,250,4.0,5.0,69,0.00,,,0.00,Wunderground v.1.15,2013-01-22 17:35:00,
2013-01-22 11:40:00,-4.2,-11.8,30.52,WSW,251,0.0,3.0,69,0.00,,,0.00,Wunderground v.1.15,2013-01-22 17:40:00,
2013-01-22 11:45:00,-4.0,-11.6,30.52,SW,230,5.0,6.0,69,0.00,,,0.00,Wunderground v.1.15,2013-01-22 17:45:00,
2013-01-22 11:50:00,-3.9,-11.5,30.52,WSW,253,3.0,3.0,69,0.00,,,0.00,Wunderground v.1.15,2013-01-22 17:50:00,
2013-01-22 11:56:00,-3.8,-11.4,30.51,SW,227,4.0,5.0,69,0.00,,,0.00,Wunderground v.1.15,2013-01-22 17:56:00,
2013-01-22 12:01:00,-3.4,-11.3,30.51,WSW,240,6.0,6.0,68,0.00,,,0.00,Wunderground v.1.15,2013-01-22 18:01:00,
2013-01-22 12:06:00,-3.0,-10.9,30.51,WSW,254,3.0,8.0,68,0.00,,,0.00,Wunderground v.1.15,2013-01-22 18:06:00,
2013-01-22 12:11:00,-3.1,-11.3,30.51,WSW,249,3.0,4.0,67,0.00,,,0.00,Wunderground v.1.15,2013-01-22 18:11:00,
2013-01-22 12:16:00,-3.0,-8.7,30.51,WSW,240,3.0,7.0,76,0.00,,,0.00,Wunderground v.1.15,2013-01-22 18:16:00,
2013-01-22 12:21:00,-2.4,-10.4,30.51,SW,233,5.0,8.0,68,0.00,,,0.00,Wunderground v.1.15,2013-01-22 18:21:00,
2013-01-22 12:27:00,-2.6,-10.9,30.51,SSW,206,9.0,9.0,67,0.00,,,0.00,Wunderground v.1.15,2013-01-22 18:27:00,
2013-01-22 12:32:00,-2.6,-10.9,30.51,SW,221,4.0,7.0,67,0.00,,,0.00,Wunderground v.1.15,2013-01-22 18:32:00,
2013-01-22 12:37:00,-2.0,-10.0,30.50,West,276,6.0,7.0,68,0.00,,,0.00,Wunderground v.1.15,2013-01-22 18:37:00,
2013-01-22 12:42:00,-1.6,-9.9,30.50,SW,236,6.0,9.0,67,0.00,,,0.00,Wunderground v.1.15,2013-01-22 18:42:00,
2013-01-22 12:48:00,-2.0,-10.6,30.50,West,259,4.0,9.0,66,0.00,,,0.00,Wunderground v.1.15,2013-01-22 18:48:00,
2013-01-22 12:53:00,-1.7,-10.0,30.49,WSW,243,3.0,7.0,67,0.00,,,0.00,Wunderground v.1.15,2013-01-22 18:53:00,
2013-01-22 12:58:00,-1.7,-10.0,30.49,WSW,254,5.0,8.0,67,0.00,,,0.00,Wunderground v.1.15,2013-01-22 18:58:00,
2013-01-22 13:03:00,-1.5,-9.8,30.49,West,273,1.0,6.0,67,0.00,,,0.00,Wunderground v.1.15,2013-01-22 19:03:00,
2013-01-22 13:08:00,-1.0,-9.3,30.49,WSW,246,2.0,8.0,67,0.00,,,0.00,Wunderground v.1.15,2013-01-22 19:08:00,
2013-01-22 13:13:00,-1.2,-9.8,30.49,WSW,251,5.0,7.0,66,0.00,,,0.00,Wunderground v.1.15,2013-01-22 19:13:00,
2013-01-22 13:18:00,-1.3,-9.9,30.48,WSW,248,2.0,7.0,66,0.00,,,0.00,Wunderground v.1.15,2013-01-22 19:18:00,
2013-01-22 13:23:00,-1.2,-9.5,30.48,SW,228,4.0,6.0,67,0.00,,,0.00,Wunderground v.1.15,2013-01-22 19:23:00,
2013-01-22 13:28:00,-1.4,-9.7,30.48,West,267,4.0,9.0,67,0.00,,,0.00,Wunderground v.1.15,2013-01-22 19:28:00,
2013-01-22 13:33:00,-1.2,-9.5,30.48,WSW,247,3.0,8.0,67,0.00,,,0.00,Wunderground v.1.15,2013-01-22 19:33:00,
2013-01-22 13:38:00,-1.2,-9.5,30.48,WSW,244,2.0,8.0,67,0.00,,,0.00,Wunderground v.1.15,2013-01-22 19:38:00,
2013-01-22 13:44:00,-0.7,-9.0,30.48,WSW,248,2.0,4.0,67,0.00,,,0.00,Wunderground v.1.15,2013-01-22 19:44:00,
2013-01-22 13:49:00,-0.5,-8.8,30.48,WSW,256,2.0,6.0,67,0.00,,,0.00,Wunderground v.1.15,2013-01-22 19:49:00,
2013-01-22 13:54:00,-0.7,-9.3,30.48,SSW,211,2.0,6.0,66,0.00,,,0.00,Wunderground v.1.15,2013-01-22 19:54:00,
2013-01-22 13:59:00,-0.7,-9.0,30.48,WSW,257,2.0,6.0,67,0.00,,,0.00,Wunderground v.1.15,2013-01-22 19:59:00,
2013-01-22 14:04:00,-0.7,-9.0,30.48,WSW,240,1.0,6.0,67,0.00,,,0.00,Wunderground v.1.15,2013-01-22 20:04:00,
2013-01-22 14:09:00,-0.6,-8.9,30.48,WSW,246,6.0,9.0,67,0.00,,,0.00,Wunderground v.1.15,2013-01-22 20:09:00,
2013-01-22 14:14:00,-0.7,-9.0,30.48,WSW,250,5.0,5.0,67,0.00,,,0.00,Wunderground v.1.15,2013-01-22 20:14:00,
2013-01-22 14:20:00,0.0,-7.8,30.48,West,265,5.0,7.0,69,0.00,,,0.00,Wunderground v.1.15,2013-01-22 20:20:00,
2013-01-22 14:25:00,0.2,-7.9,30.48,WSW,244,2.0,6.0,68,0.00,,,0.00,Wunderground v.1.15,2013-01-22 20:25:00,
2013-01-22 14:30:00,0.6,-7.8,30.47,West,265,2.0,6.0,67,0.00,,,0.00,Wunderground v.1.15,2013-01-22 20:30:00,
2013-01-22 14:35:00,0.9,-7.8,30.47,WSW,247,7.0,9.0,66,0.00,,,0.00,Wunderground v.1.15,2013-01-22 20:35:00,
2013-01-22 14:40:00,0.8,-7.9,30.47,SW,236,5.0,5.0,66,0.00,,,0.00,Wunderground v.1.15,2013-01-22 20:40:00,
2013-01-22 14:45:00,0.2,-8.5,30.47,SW,216,1.0,6.0,66,0.00,,,0.00,Wunderground v.1.15,2013-01-22 20:45:00,
2013-01-22 14:50:00,-0.1,-8.5,30.46,SW,224,4.0,4.0,67,0.00,,,0.00,Wunderground v.1.15,2013-01-22 20:50:00,
2013-01-22 14:55:00,0.0,-8.1,30.47,SW,236,2.0,6.0,68,0.00,,,0.00,Wunderground v.1.15,2013-01-22 20:55:00,
2013-01-22 15:01:00,0.2,-8.2,30.47,WSW,257,7.0,8.0,67,0.00,,,0.00,Wunderground v.1.15,2013-01-22 21:01:00,
2013-01-22 15:06:00,0.1,-8.3,30.47,WSW,250,5.0,8.0,67,0.00,,,0.00,Wunderground v.1.15,2013-01-22 21:06:00,
2013-01-22 15:12:00,0.0,-8.4,30.47,West,260,3.0,6.0,67,0.00,,,0.00,Wunderground v.1.15,2013-01-22 21:12:00,
2013-01-22 15:17:00,0.0,-8.1,30.47,West,260,3.0,6.0,68,0.00,,,0.00,Wunderground v.1.15,2013-01-22 21:17:00,
2013-01-22 15:22:00,0.0,-8.4,30.47,WSW,254,4.0,6.0,67,0.00,,,0.00,Wunderground v.1.15,2013-01-22 21:22:00,
2013-01-22 15:27:00,0.0,-8.1,30.47,WSW,253,5.0,6.0,68,0.00,,,0.00,Wunderground v.1.15,2013-01-22 21:27:00,
2013-01-22 15:32:00,0.0,-8.1,30.47,SW,232,2.0,6.0,68,0.00,,,0.00,Wunderground v.1.15,2013-01-22 21:32:00,
2013-01-22 15:37:00,0.1,-7.7,30.47,West,267,2.0,6.0,69,0.00,,,0.00,Wunderground v.1.15,2013-01-22 21:37:00,
2013-01-22 15:42:00,0.1,-8.0,30.47,SW,225,5.0,5.0,68,0.00,,,0.00,Wunderground v.1.15,2013-01-22 21:42:00,
2013-01-22 15:47:00,0.1,-8.0,30.47,WSW,239,5.0,7.0,68,0.00,,,0.00,Wunderground v.1.15,2013-01-22 21:47:00,
2013-01-22 15:52:00,0.0,-8.1,30.46,SSW,196,1.0,5.0,68,0.00,,,0.00,Wunderground v.1.15,2013-01-22 21:52:00,
2013-01-22 15:57:00,0.1,-7.7,30.46,SW,223,6.0,6.0,69,0.00,,,0.00,Wunderground v.1.15,2013-01-22 21:57:00,
2013-01-22 16:02:00,0.1,-7.7,30.46,SW,234,2.0,4.0,69,0.00,,,0.00,Wunderground v.1.15,2013-01-22 22:02:00,
2013-01-22 16:07:00,0.2,-7.6,30.46,SW,225,3.0,5.0,69,0.00,,,0.00,Wunderground v.1.15,2013-01-22 22:07:00,
2013-01-22 16:12:00,0.2,-7.6,30.46,WSW,246,0.0,3.0,69,0.00,,,0.00,Wunderground v.1.15,2013-01-22 22:12:00,
2013-01-22 16:17:00,0.2,-7.6,30.45,WSW,246,3.0,7.0,69,0.00,,,0.00,Wunderground v.1.15,2013-01-22 22:17:00,
2013-01-22 16:22:00,0.1,-7.7,30.45,SW,225,4.0,6.0,69,0.00,,,0.00,Wunderground v.1.15,2013-01-22 22:22:00,
2013-01-22 16:28:00,0.0,-7.8,30.45,SSW,207,3.0,8.0,69,0.00,,,0.00,Wunderground v.1.15,2013-01-22 22:28:00,
2013-01-22 16:33:00,0.1,-7.7,30.46,West,260,3.0,7.0,69,0.00,,,0.00,Wunderground v.1.15,2013-01-22 22:33:00,
2013-01-22 16:38:00,0.1,-7.7,30.46,WSW,243,2.0,7.0,69,0.00,,,0.00,Wunderground v.1.15,2013-01-22 22:38:00,
2013-01-22 16:43:00,0.2,-7.3,30.46,WSW,243,2.0,3.0,70,0.00,,,0.00,Wunderground v.1.15,2013-01-22 22:43:00,
2013-01-22 16:48:00,0.2,-7.3,30.46,WSW,246,4.0,6.0,70,0.00,,,0.00,Wunderground v.1.15,2013-01-22 22:48:00,
2013-01-22 16:53:00,0.2,-7.3,30.45,West,263,6.0,8.0,70,0.00,,,0.00,Wunderground v.1.15,2013-01-22 22:53:00,
2013-01-22 16:58:00,0.1,-7.4,30.45,West,260,5.0,8.0,70,0.00,,,0.00,Wunderground v.1.15,2013-01-22 22:58:00,
2013-01-22 17:03:00,0.1,-7.4,30.46,WSW,240,2.0,4.0,70,0.00,,,0.00,Wunderground v.1.15,2013-01-22 23:03:00,
2013-01-22 17:08:00,0.0,-7.5,30.45,WSW,240,1.0,4.0,70,0.00,,,0.00,Wunderground v.1.15,2013-01-22 23:08:00,
2013-01-22 17:14:00,-0.1,-7.3,30.45,WSW,240,2.0,3.0,71,0.00,,,0.00,Wunderground v.1.15,2013-01-22 23:14:00,
2013-01-22 17:19:00,-0.2,-7.4,30.45,WSW,240,2.0,3.0,71,0.00,,,0.00,Wunderground v.1.15,2013-01-22 23:19:00,
2013-01-22 17:24:00,-0.2,-7.4,30.44,WSW,240,1.0,3.0,71,0.00,,,0.00,Wunderground v.1.15,2013-01-22 23:24:00,
2013-01-22 17:29:00,-0.3,-7.5,30.44,WSW,240,2.0,3.0,71,0.00,,,0.00,Wunderground v.1.15,2013-01-22 23:29:00,
2013-01-22 17:34:00,-0.4,-7.3,30.44,WSW,240,2.0,3.0,72,0.00,,,0.00,Wunderground v.1.15,2013-01-22 23:34:00,
2013-01-22 17:40:00,-0.5,-7.4,30.44,WSW,240,1.0,5.0,72,0.00,,,0.00,Wunderground v.1.15,2013-01-22 23:40:00,
2013-01-22 17:45:00,-0.5,-7.4,30.44,WSW,240,1.0,4.0,72,0.00,,,0.00,Wunderground v.1.15,2013-01-22 23:45:00,
2013-01-22 17:50:00,-0.5,-7.4,30.44,WSW,239,1.0,2.0,72,0.00,,,0.00,Wunderground v.1.15,2013-01-22 23:50:00,
2013-01-22 17:55:00,-0.5,-7.4,30.44,WSW,239,3.0,4.0,72,0.00,,,0.00,Wunderground v.1.15,2013-01-22 23:55:00,
2013-01-22 18:00:00,-0.5,-7.1,30.44,WSW,239,0.0,1.0,73,0.00,,,0.00,Wunderground v.1.15,2013-01-23 00:00:00,
2013-01-22 18:05:00,-0.4,-7.0,30.43,WSW,239,2.0,3.0,73,0.00,,,0.00,Wunderground v.1.15,2013-01-23 00:05:00,
2013-01-22 18:11:00,-0.3,-6.9,30.43,WSW,239,1.0,4.0,73,0.00,,,0.00,Wunderground v.1.15,2013-01-23 00:11:00,
2013-01-22 18:16:00,-0.3,-6.9,30.43,WSW,239,3.0,4.0,73,0.00,,,0.00,Wunderground v.1.15,2013-01-23 00:16:00,
2013-01-22 18:21:00,-0.3,-6.9,30.43,WSW,239,3.0,3.0,73,0.00,,,0.00,Wunderground v.1.15,2013-01-23 00:21:00,
2013-01-22 18:27:00,-0.2,-6.5,30.43,WSW,239,2.0,3.0,74,0.00,,,0.00,Wunderground v.1.15,2013-01-23 00:27:00,
2013-01-22 18:32:00,-0.1,-6.4,30.43,WSW,239,0.0,3.0,74,0.00,,,0.00,Wunderground v.1.15,2013-01-23 00:32:00,
2013-01-22 18:37:00,0.0,-6.3,30.42,SW,236,3.0,5.0,74,0.00,,,0.00,Wunderground v.1.15,2013-01-23 00:37:00,
2013-01-22 18:42:00,0.0,-6.3,30.42,SW,236,0.0,2.0,74,0.00,,,0.00,Wunderground v.1.15,2013-01-23 00:42:00,
2013-01-22 18:47:00,0.1,-6.2,30.42,SW,236,2.0,5.0,74,0.00,,,0.00,Wunderground v.1.15,2013-01-23 00:47:00,
2013-01-22 18:52:00,0.1,-6.2,30.42,SW,236,0.0,4.0,74,0.00,,,0.00,Wunderground v.1.15,2013-01-23 00:52:00,
2013-01-22 18:57:00,0.2,-6.1,30.42,SW,236,0.0,4.0,74,0.00,,,0.00,Wunderground v.1.15,2013-01-23 00:57:00,
2013-01-22 19:02:00,0.3,-5.8,30.42,SW,236,2.0,2.0,75,0.00,,,0.00,Wunderground v.1.15,2013-01-23 01:02:00,
2013-01-22 19:08:00,0.4,-5.7,30.42,SW,236,1.0,4.0,75,0.00,,,0.00,Wunderground v.1.15,2013-01-23 01:08:00,
2013-01-22 19:13:00,0.4,-5.9,30.42,WSW,244,0.0,4.0,74,0.00,,,0.00,Wunderground v.1.15,2013-01-23 01:13:00,
2013-01-22 19:18:00,0.5,-5.6,30.42,WSW,244,1.0,4.0,75,0.00,,,0.00,Wunderground v.1.15,2013-01-23 01:18:00,
2013-01-22 19:23:00,0.6,-5.5,30.42,WSW,244,1.0,5.0,75,0.00,,,0.00,Wunderground v.1.15,2013-01-23 01:23:00,
2013-01-22 19:28:00,0.7,-5.4,30.42,WSW,248,4.0,5.0,75,0.00,,,0.00,Wunderground v.1.15,2013-01-23 01:28:00,
2013-01-22 19:33:00,0.8,-5.3,30.41,WSW,246,4.0,4.0,75,0.00,,,0.00,Wunderground v.1.15,2013-01-23 01:33:00,
2013-01-22 19:38:00,0.8,-5.0,30.41,WSW,246,2.0,4.0,76,0.00,,,0.00,Wunderground v.1.15,2013-01-23 01:38:00,
2013-01-22 19:43:00,0.9,-5.2,30.40,WSW,245,1.0,4.0,75,0.00,,,0.00,Wunderground v.1.15,2013-01-23 01:43:00,
2013-01-22 19:49:00,1.0,-5.1,30.40,WSW,245,0.0,4.0,75,0.00,,,0.00,Wunderground v.1.15,2013-01-23 01:49:00,
2013-01-22 19:54:00,1.0,-4.8,30.40,WSW,244,4.0,5.0,76,0.00,,,0.00,Wunderground v.1.15,2013-01-23 01:54:00,
2013-01-22 19:59:00,1.1,-4.7,30.40,WSW,237,2.0,6.0,76,0.00,,,0.00,Wunderground v.1.15,2013-01-23 01:59:00,
2013-01-22 20:04:00,1.3,-4.5,30.40,WSW,243,2.0,5.0,76,0.00,,,0.00,Wunderground v.1.15,2013-01-23 02:04:00,
2013-01-22 20:09:00,1.3,-4.5,30.40,WSW,243,6.0,9.0,76,0.00,,,0.00,Wunderground v.1.15,2013-01-23 02:09:00,
2013-01-22 20:14:00,1.4,-4.4,30.40,SW,230,3.0,8.0,76,0.00,,,0.00,Wunderground v.1.15,2013-01-23 02:14:00,
2013-01-22 20:19:00,1.4,-4.4,30.40,SW,223,2.0,8.0,76,0.00,,,0.00,Wunderground v.1.15,2013-01-23 02:19:00,
2013-01-22 20:24:00,1.5,-4.3,30.40,SW,231,9.0,9.0,76,0.00,,,0.00,Wunderground v.1.15,2013-01-23 02:24:00,
2013-01-22 20:30:00,1.6,-4.2,30.40,WSW,238,4.0,9.0,76,0.00,,,0.00,Wunderground v.1.15,2013-01-23 02:30:00,
2013-01-22 20:35:00,1.7,-4.1,30.40,WSW,245,4.0,8.0,76,0.00,,,0.00,Wunderground v.1.15,2013-01-23 02:35:00,
2013-01-22 20:40:00,1.7,-4.1,30.40,WSW,246,2.0,8.0,76,0.00,,,0.00,Wunderground v.1.15,2013-01-23 02:40:00,
2013-01-22 20:45:00,1.8,-4.3,30.41,WSW,249,3.0,7.0,75,0.00,,,0.00,Wunderground v.1.15,2013-01-23 02:45:00,
2013-01-22 20:50:00,1.9,-4.2,30.40,WSW,247,2.0,3.0,75,0.00,,,0.00,Wunderground v.1.15,2013-01-23 02:50:00,
2013-01-22 20:55:00,2.0,-4.1,30.40,SW,236,2.0,6.0,75,0.00,,,0.00,Wunderground v.1.15,2013-01-23 02:55:00,
2013-01-22 21:00:00,2.0,-3.8,30.40,WSW,238,3.0,4.0,76,0.00,,,0.00,Wunderground v.1.15,2013-01-23 03:00:00,
2013-01-22 21:06:00,2.2,-3.6,30.40,WSW,240,2.0,5.0,76,0.00,,,0.00,Wunderground v.1.15,2013-01-23 03:06:00,
2013-01-22 21:12:00,2.2,-3.6,30.40,WSW,240,3.0,3.0,76,0.00,,,0.00,Wunderground v.1.15,2013-01-23 03:12:00,
2013-01-22 21:17:00,2.3,-3.5,30.39,WSW,238,2.0,4.0,76,0.00,,,0.00,Wunderground v.1.15,2013-01-23 03:17:00,
2013-01-22 21:22:00,2.4,-3.4,30.40,WSW,247,1.0,4.0,76,0.00,,,0.00,Wunderground v.1.15,2013-01-23 03:22:00,
2013-01-22 21:27:00,2.5,-3.3,30.39,WSW,247,5.0,5.0,76,0.00,,,0.00,Wunderground v.1.15,2013-01-23 03:27:00,
2013-01-22 21:32:00,2.5,-3.3,30.39,WSW,248,3.0,3.0,76,0.00,,,0.00,Wunderground v.1.15,2013-01-23 03:32:00,
2013-01-22 21:38:00,2.6,-3.2,30.39,WSW,247,2.0,4.0,76,0.00,,,0.00,Wunderground v.1.15,2013-01-23 03:38:00,
2013-01-22 21:43:00,2.6,-3.2,30.39,WSW,246,0.0,5.0,76,0.00,,,0.00,Wunderground v.1.15,2013-01-23 03:43:00,
2013-01-22 21:48:00,2.7,-3.1,30.39,WSW,246,2.0,5.0,76,0.00,,,0.00,Wunderground v.1.15,2013-01-23 03:48:00,
2013-01-22 21:53:00,2.8,-3.1,30.39,WSW,245,4.0,5.0,76,0.00,,,0.00,Wunderground v.1.15,2013-01-23 03:53:00,
2013-01-22 21:58:00,2.8,-3.1,30.39,WSW,244,2.0,5.0,76,0.00,,,0.00,Wunderground v.1.15,2013-01-23 03:58:00,
2013-01-22 22:03:00,2.9,-3.0,30.39,WSW,244,0.0,3.0,76,0.00,,,0.00,Wunderground v.1.15,2013-01-23 04:03:00,
2013-01-22 22:08:00,3.0,-2.9,30.39,WSW,244,0.0,3.0,76,0.00,,,0.00,Wunderground v.1.15,2013-01-23 04:08:00,
2013-01-22 22:13:00,3.1,-2.5,30.38,WSW,244,0.0,1.0,77,0.00,,,0.00,Wunderground v.1.15,2013-01-23 04:13:00,
2013-01-22 22:18:00,3.2,-2.7,30.38,WSW,244,2.0,5.0,76,0.00,,,0.00,Wunderground v.1.15,2013-01-23 04:18:00,
2013-01-22 22:23:00,3.2,-2.4,30.38,WSW,244,4.0,4.0,77,0.00,,,0.00,Wunderground v.1.15,2013-01-23 04:23:00,
2013-01-22 22:28:00,3.3,-2.3,30.38,WSW,244,3.0,4.0,77,0.00,,,0.00,Wunderground v.1.15,2013-01-23 04:28:00,
2013-01-22 22:33:00,3.3,-2.3,30.37,WSW,244,0.0,1.0,77,0.00,,,0.00,Wunderground v.1.15,2013-01-23 04:33:00,
2013-01-22 22:38:00,3.3,-2.3,30.37,WSW,244,0.0,1.0,77,0.00,,,0.00,Wunderground v.1.15,2013-01-23 04:38:00,
2013-01-22 22:43:00,3.4,-2.2,30.36,WSW,244,0.0,2.0,77,0.00,,,0.00,Wunderground v.1.15,2013-01-23 04:43:00,
2013-01-22 22:48:00,3.5,-2.1,30.36,WSW,244,2.0,2.0,77,0.00,,,0.00,Wunderground v.1.15,2013-01-23 04:48:00,
2013-01-22 22:54:00,3.5,-2.1,30.36,WSW,244,0.0,1.0,77,0.00,,,0.00,Wunderground v.1.15,2013-01-23 04:54:00,
2013-01-22 22:59:00,3.6,-2.0,30.36,WSW,244,0.0,3.0,77,0.00,,,0.00,Wunderground v.1.15,2013-01-23 04:59:00,
2013-01-22 23:02:00,3.6,-2.0,30.36,WSW,244,1.0,1.0,77,0.00,,,0.00,Wunderground v.1.15,2013-01-23 05:02:00,
2013-01-22 23:03:00,3.6,-2.0,30.36,WSW,244,0.0,1.0,77,0.00,,,0.00,Wunderground v.1.15,2013-01-23 05:03:00,
2013-01-22 23:04:00,3.6,-2.0,30.37,WSW,244,0.0,1.0,77,0.00,,,0.00,Wunderground v.1.15,2013-01-23 05:04:00,
2013-01-22 23:09:00,3.7,-1.9,30.37,WSW,244,0.0,2.0,77,0.00,,,0.00,Wunderground v.1.15,2013-01-23 05:09:00,
2013-01-22 23:14:00,3.8,-1.8,30.37,WSW,244,2.0,2.0,77,0.00,,,0.00,Wunderground v.1.15,2013-01-23 05:14:00,
2013-01-22 23:19:00,3.9,-1.4,30.36,WSW,244,2.0,3.0,78,0.00,,,0.00,Wunderground v.1.15,2013-01-23 05:19:00,
2013-01-22 23:24:00,4.0,-1.3,30.37,WSW,244,0.0,2.0,78,0.00,,,0.00,Wunderground v.1.15,2013-01-23 05:24:00,
2013-01-22 23:29:00,4.1,-1.2,30.37,WSW,244,1.0,4.0,78,0.00,,,0.00,Wunderground v.1.15,2013-01-23 05:29:00,
2013-01-22 23:34:00,4.2,-1.1,30.37,WSW,244,0.0,2.0,78,0.00,,,0.00,Wunderground v.1.15,2013-01-23 05:34:00,
2013-01-22 23:39:00,4.2,-1.1,30.37,WSW,244,2.0,3.0,78,0.00,,,0.00,Wunderground v.1.15,2013-01-23 05:39:00,
2013-01-22 23:44:00,4.3,-1.0,30.36,WSW,244,0.0,4.0,78,0.00,,,0.00,Wunderground v.1.15,2013-01-23 05:44:00,
2013-01-22 23:49:00,4.4,-0.9,30.36,WSW,244,0.0,4.0,78,0.00,,,0.00,Wunderground v.1.15,2013-01-23 05:49:00,
2013-01-22 23:55:00,4.4,-0.9,30.36,WSW,244,0.0,2.0,78,0.00,,,0.00,Wunderground v.1.15,2013-01-23 05:55:00,